Time;durP1;ratioP1;P1;durP2;ratioP2;P2;SDS_P1;SDS_P2;PMS_P1;PMS_P2;Temp;Humidity;BMP_temperature;BMP_pressure;BME280_temperature;BME280_humidity;BME280_pressure;Samples;Min_cycle;Max_cycle;Signal;HPM_P1;HPM_P2
2024/02/27 00:01:22;;;;;;;62.47;31.13;;;;;;;4.51;100.00;101004.19;5010809;28;20118;-72
2024/02/27 00:03:47;;;;;;;63.97;30.60;;;;;;;4.47;100.00;101003.59;5002976;28;20032;-72
2024/02/27 00:06:13;;;;;;;69.60;34.60;;;;;;;4.59;100.00;101009.56;4997369;28;20049;-72
2024/02/27 00:08:39;;;;;;;65.60;32.65;;;;;;;4.48;100.00;101012.09;5010956;28;20033;-72
2024/02/27 00:11:04;;;;;;;70.57;33.85;;;;;;;4.45;100.00;101012.34;5011775;28;20029;-72
2024/02/27 00:13:29;;;;;;;60.95;28.40;;;;;;;4.46;100.00;101009.66;5010575;28;20037;-72
2024/02/27 00:15:55;;;;;;;53.20;27.70;;;;;;;4.42;100.00;101015.13;4998979;28;20033;-72
2024/02/27 00:18:20;;;;;;;63.45;31.27;;;;;;;4.55;100.00;101015.88;4997695;28;20496;-72
2024/02/27 00:20:46;;;;;;;57.00;29.05;;;;;;;4.53;100.00;101015.16;4996263;28;20115;-71
2024/02/27 00:23:12;;;;;;;70.13;34.05;;;;;;;4.50;100.00;101017.94;5014827;28;20400;-72
2024/02/27 00:25:37;;;;;;;64.38;31.33;;;;;;;4.44;100.00;101010.69;4993364;28;20059;-72
2024/02/27 00:28:03;;;;;;;61.25;29.35;;;;;;;4.46;100.00;101017.38;5008397;28;20030;-71
2024/02/27 00:30:29;;;;;;;59.30;27.95;;;;;;;4.49;100.00;101017.13;5003702;28;20056;-72
2024/02/27 00:32:54;;;;;;;61.60;31.35;;;;;;;4.58;100.00;101015.66;5014642;28;20018;-71
2024/02/27 00:35:20;;;;;;;59.33;28.40;;;;;;;4.59;100.00;101022.41;5009604;28;20038;-72
2024/02/27 00:37:45;;;;;;;55.53;27.00;;;;;;;4.49;100.00;101021.44;5010315;28;20476;-72
2024/02/27 00:40:12;;;;;;;62.53;28.67;;;;;;;4.59;100.00;101026.75;5010926;28;20046;-72
2024/02/27 00:42:38;;;;;;;59.33;29.38;;;;;;;4.58;100.00;101033.63;5024069;28;20050;-72
2024/02/27 00:45:04;;;;;;;68.43;32.28;;;;;;;4.57;100.00;101028.59;5012804;28;20502;-72
2024/02/27 00:47:29;;;;;;;58.67;29.73;;;;;;;4.63;100.00;101029.00;5008886;28;20141;-72
2024/02/27 00:49:55;;;;;;;77.32;35.70;;;;;;;4.56;100.00;101029.50;4995570;28;20108;-71
2024/02/27 00:52:20;;;;;;;58.83;28.02;;;;;;;4.54;100.00;101036.50;5012651;28;20041;-71
2024/02/27 00:54:46;;;;;;;61.55;28.90;;;;;;;4.54;100.00;101044.22;5012179;28;20037;-72
2024/02/27 00:57:11;;;;;;;66.00;27.95;;;;;;;4.48;100.00;101041.19;5006463;28;20034;-72
2024/02/27 00:59:37;;;;;;;77.60;34.47;;;;;;;4.55;100.00;101045.88;5012343;28;20033;-72
2024/02/27 01:02:02;;;;;;;65.05;30.05;;;;;;;4.57;100.00;101037.13;5007403;28;20033;-72
2024/02/27 01:04:28;;;;;;;58.83;28.25;;;;;;;4.54;100.00;101045.06;5017594;28;20033;-72
2024/02/27 01:06:53;;;;;;;60.70;27.77;;;;;;;4.57;100.00;101039.69;4992578;28;20034;-71
2024/02/27 01:09:19;;;;;;;53.60;25.25;;;;;;;4.59;100.00;101032.69;4993810;28;20036;-71
2024/02/27 01:11:44;;;;;;;55.05;26.55;;;;;;;4.56;100.00;101035.50;4995445;28;20038;-72
2024/02/27 01:14:09;;;;;;;57.30;27.63;;;;;;;4.58;100.00;101043.91;4983755;28;20029;-72
2024/02/27 01:16:35;;;;;;;49.40;25.85;;;;;;;4.57;100.00;101046.59;5013787;28;20038;-71
2024/02/27 01:19:00;;;;;;;61.50;28.20;;;;;;;4.67;100.00;101050.09;5010456;28;20044;-72
2024/02/27 01:21:26;;;;;;;61.85;29.25;;;;;;;4.61;100.00;101051.38;5006500;28;20038;-72
2024/02/27 01:23:51;;;;;;;53.22;25.98;;;;;;;4.57;100.00;101044.81;5008308;28;20038;-72
2024/02/27 01:26:17;;;;;;;54.00;24.55;;;;;;;4.54;100.00;101049.34;5020388;28;20041;-72
2024/02/27 01:28:42;;;;;;;54.42;25.42;;;;;;;4.53;100.00;101047.72;5014969;28;20029;-72
2024/02/27 01:31:07;;;;;;;51.63;25.10;;;;;;;4.48;100.00;101051.47;5011372;28;20500;-71
2024/02/27 01:33:33;;;;;;;58.90;26.77;;;;;;;4.53;100.00;101042.59;4991939;28;20029;-71
2024/02/27 01:35:58;;;;;;;50.92;25.33;;;;;;;4.55;100.00;101056.16;5009637;28;20492;-72
2024/02/27 01:38:24;;;;;;;53.28;25.98;;;;;;;4.51;100.00;101055.53;5020639;28;20476;-72
2024/02/27 01:40:49;;;;;;;49.60;24.92;;;;;;;4.45;100.00;101054.25;5008508;28;20089;-72
2024/02/27 01:43:25;;;;;;;53.72;24.52;;;;;;;4.49;100.00;101065.09;5012163;28;20036;-72
2024/02/27 01:45:57;;;;;;;55.83;26.00;;;;;;;4.49;100.00;101060.78;5005515;28;20634;-72
2024/02/27 01:48:23;;;;;;;49.30;24.65;;;;;;;4.49;100.00;101072.81;5010393;28;20037;-72
2024/02/27 01:50:49;;;;;;;49.13;23.38;;;;;;;4.59;100.00;101062.69;4992039;28;20137;-73
2024/02/27 01:53:15;;;;;;;49.80;24.83;;;;;;;4.54;100.00;101073.31;5008395;28;20128;-72
2024/02/27 01:55:42;;;;;;;49.38;23.50;;;;;;;4.52;100.00;101075.19;5008495;28;20064;-72
2024/02/27 01:58:10;;;;;;;45.97;22.80;;;;;;;4.45;100.00;101074.78;5009377;28;20026;-72
2024/02/27 02:00:36;;;;;;;53.88;25.30;;;;;;;4.48;100.00;101077.13;5012052;28;20048;-72
2024/02/27 02:03:01;;;;;;;42.78;22.13;;;;;;;4.39;100.00;101076.94;5012992;28;20045;-72
2024/02/27 02:05:29;;;;;;;48.92;22.73;;;;;;;4.36;100.00;101077.19;5009934;28;20030;-72
2024/02/27 02:07:54;;;;;;;46.95;24.02;;;;;;;4.39;100.00;101082.09;4993429;28;20041;-72
2024/02/27 02:10:20;;;;;;;47.47;24.33;;;;;;;4.38;100.00;101083.84;5006465;28;20033;-72
2024/02/27 02:12:45;;;;;;;43.72;21.17;;;;;;;4.36;100.00;101088.28;5008813;28;20045;-72
2024/02/27 02:15:11;;;;;;;52.05;23.23;;;;;;;4.45;100.00;101084.25;4993341;28;20484;-72
2024/02/27 02:17:36;;;;;;;45.60;21.85;;;;;;;4.38;100.00;101083.84;4991313;28;20074;-72
2024/02/27 02:20:05;;;;;;;45.53;21.27;;;;;;;4.36;100.00;101085.69;5009360;28;20029;-72
2024/02/27 02:22:31;;;;;;;47.67;22.45;;;;;;;4.54;100.00;101087.88;4991055;28;21284;-72
2024/02/27 02:24:58;;;;;;;45.03;21.10;;;;;;;4.38;100.00;101094.13;5008490;28;20483;-72
2024/02/27 02:27:25;;;;;;;40.33;20.45;;;;;;;4.47;100.00;101098.59;5011440;28;20038;-72
2024/02/27 02:29:51;;;;;;;45.25;21.02;;;;;;;4.41;100.00;101100.81;4993689;28;20064;-72
2024/02/27 02:32:17;;;;;;;43.38;20.15;;;;;;;4.37;100.00;101105.31;4992192;28;20026;-71
2024/02/27 02:34:42;;;;;;;42.40;20.38;;;;;;;4.39;100.00;101107.75;4991908;28;20481;-72
2024/02/27 02:37:07;;;;;;;41.33;20.00;;;;;;;4.36;100.00;101113.94;4992840;28;20385;-72
2024/02/27 02:39:33;;;;;;;45.90;20.15;;;;;;;4.38;100.00;101118.97;5013697;28;20044;-72
2024/02/27 02:41:59;;;;;;;41.30;19.80;;;;;;;4.33;100.00;101116.72;4991084;28;20041;-72
2024/02/27 02:44:24;;;;;;;42.85;20.55;;;;;;;4.41;100.00;101117.03;5009951;28;20036;-72
2024/02/27 02:46:49;;;;;;;40.88;19.55;;;;;;;4.39;100.00;101113.75;5006279;28;20504;-72
2024/02/27 02:49:15;;;;;;;41.70;20.10;;;;;;;4.42;100.00;101115.25;5013758;28;20033;-72
2024/02/27 02:51:40;;;;;;;40.47;19.35;;;;;;;4.35;100.00;101114.06;5007840;28;20092;-72
2024/02/27 02:54:06;;;;;;;41.40;19.88;;;;;;;4.32;100.00;101112.53;5010321;28;20034;-72
2024/02/27 02:56:32;;;;;;;42.00;19.48;;;;;;;4.33;100.00;101108.19;4995018;28;20034;-72
2024/02/27 02:58:57;;;;;;;42.00;20.88;;;;;;;4.34;100.00;101109.84;5016469;28;20026;-72
2024/02/27 03:01:22;;;;;;;40.40;19.42;;;;;;;4.31;100.00;101113.44;5005779;28;20034;-72
2024/02/27 03:03:48;;;;;;;40.85;20.55;;;;;;;4.32;100.00;101112.53;5010566;28;20065;-72
2024/02/27 03:06:13;;;;;;;43.58;20.73;;;;;;;4.29;100.00;101117.88;5009657;28;20041;-72
2024/02/27 03:08:39;;;;;;;44.33;19.38;;;;;;;4.31;100.00;101116.00;5008407;28;20510;-72
2024/02/27 03:11:04;;;;;;;43.78;20.70;;;;;;;4.31;100.00;101125.47;5017565;28;20412;-72
2024/02/27 03:13:30;;;;;;;43.83;20.80;;;;;;;4.24;100.00;101118.19;5012054;28;20045;-72
2024/02/27 03:15:56;;;;;;;42.00;20.98;;;;;;;4.21;100.00;101118.41;5009951;28;20068;-72
2024/02/27 03:18:22;;;;;;;41.78;20.77;;;;;;;4.17;100.00;101116.97;5008316;28;20133;-72
2024/02/27 03:20:47;;;;;;;44.88;21.05;;;;;;;4.13;100.00;101118.13;4991783;28;20034;-72
2024/02/27 03:23:13;;;;;;;48.78;21.90;;;;;;;4.14;100.00;101118.94;5011506;28;21279;-72
2024/02/27 03:25:38;;;;;;;44.50;21.10;;;;;;;4.09;100.00;101125.22;5005150;28;20037;-72
2024/02/27 03:28:03;;;;;;;47.83;22.48;;;;;;;4.13;100.00;101120.69;4989461;28;20025;-71
2024/02/27 03:30:29;;;;;;;46.38;22.08;;;;;;;4.18;100.00;101115.22;5008894;28;20053;-72
2024/02/27 03:32:54;;;;;;;43.08;20.80;;;;;;;4.26;100.00;101120.66;5007499;28;20469;-71
2024/02/27 03:35:21;;;;;;;40.75;20.52;;;;;;;4.20;100.00;101121.06;4990803;28;20046;-71
2024/02/27 03:37:47;;;;;;;45.95;21.60;;;;;;;4.17;100.00;101121.31;4974023;28;20049;-72
2024/02/27 03:40:12;;;;;;;43.95;20.48;;;;;;;4.26;100.00;101126.63;4991383;28;20041;-71
2024/02/27 03:42:38;;;;;;;46.40;21.85;;;;;;;4.28;100.00;101129.91;4988761;28;20042;-71
2024/02/27 03:45:05;;;;;;;45.47;21.35;;;;;;;4.18;100.00;101128.06;4975805;28;20022;-72
2024/02/27 03:47:30;;;;;;;44.97;21.17;;;;;;;4.16;100.00;101138.44;5008015;28;20044;-71
2024/02/27 03:49:55;;;;;;;47.20;20.50;;;;;;;4.15;100.00;101131.66;4990110;28;20034;-72
2024/02/27 03:52:21;;;;;;;47.47;23.27;;;;;;;4.22;100.00;101129.47;4990452;28;20049;-72
2024/02/27 03:54:46;;;;;;;45.35;21.00;;;;;;;4.20;100.00;101133.91;5008137;28;20033;-71
2024/02/27 03:57:12;;;;;;;49.33;22.98;;;;;;;4.12;100.00;101123.38;5006467;28;20053;-71
2024/02/27 03:59:38;;;;;;;46.42;22.13;;;;;;;4.13;100.00;101125.00;5009412;28;20049;-72
2024/02/27 04:02:03;;;;;;;48.28;23.02;;;;;;;4.13;100.00;101137.84;5004297;28;20042;-72
2024/02/27 04:04:30;;;;;;;47.42;22.13;;;;;;;4.17;100.00;101134.94;5012230;28;20029;-71
2024/02/27 04:06:56;;;;;;;48.28;22.02;;;;;;;4.11;100.00;101143.09;4991958;28;20030;-71
2024/02/27 04:09:21;;;;;;;48.72;22.02;;;;;;;4.07;100.00;101145.03;5007359;28;20029;-71
2024/02/27 04:11:46;;;;;;;44.15;21.98;;;;;;;4.10;100.00;101149.94;5013533;28;21526;-72
2024/02/27 04:14:12;;;;;;;48.15;22.13;;;;;;;4.11;100.00;101153.34;5011917;28;20115;-72
2024/02/27 04:16:39;;;;;;;44.50;21.83;;;;;;;4.19;100.00;101153.63;4996837;28;20401;-72
2024/02/27 04:19:06;;;;;;;48.25;22.42;;;;;;;4.20;100.00;101157.84;5009482;28;20081;-71
2024/02/27 04:21:31;;;;;;;48.83;22.38;;;;;;;4.09;100.00;101158.59;5015186;28;20112;-71
2024/02/27 04:23:57;;;;;;;53.97;23.48;;;;;;;4.10;100.00;101157.63;5013483;28;20037;-72
2024/02/27 04:26:22;;;;;;;48.58;22.33;;;;;;;4.07;100.00;101159.63;4993747;28;20042;-71
2024/02/27 04:28:48;;;;;;;46.78;22.98;;;;;;;4.14;100.00;101160.81;4991807;28;20030;-71
2024/02/27 04:31:13;;;;;;;48.55;22.63;;;;;;;4.10;100.00;101170.47;5023739;28;20026;-71
2024/02/27 04:33:40;;;;;;;52.42;22.65;;;;;;;4.09;100.00;101170.59;4993364;28;20404;-71
2024/02/27 04:36:08;;;;;;;46.25;22.23;;;;;;;4.12;100.00;101162.69;4994700;28;20034;-72
2024/02/27 04:38:33;;;;;;;50.67;23.67;;;;;;;4.03;100.00;101166.72;5006903;28;20046;-72
2024/02/27 04:40:58;;;;;;;51.05;22.95;;;;;;;4.04;100.00;101157.25;5008344;28;20071;-72
2024/02/27 04:43:24;;;;;;;48.80;22.05;;;;;;;4.09;100.00;101152.63;4991925;28;20037;-72
2024/02/27 04:45:49;;;;;;;48.15;22.48;;;;;;;4.03;100.00;101160.72;4975864;28;20038;-71
2024/02/27 04:48:15;;;;;;;49.30;24.27;;;;;;;3.97;100.00;101167.09;4974385;28;20401;-71
2024/02/27 04:50:40;;;;;;;45.60;21.55;;;;;;;3.98;100.00;101167.94;4991398;28;20038;-71
2024/02/27 04:53:06;;;;;;;47.78;21.50;;;;;;;3.97;100.00;101174.81;4999720;28;20041;-71
2024/02/27 04:55:31;;;;;;;47.58;21.67;;;;;;;4.00;100.00;101174.59;4991480;28;20088;-71
2024/02/27 04:57:57;;;;;;;52.05;23.33;;;;;;;4.01;100.00;101176.25;5016966;28;20096;-71
2024/02/27 05:00:23;;;;;;;49.17;23.05;;;;;;;4.05;100.00;101181.97;5013011;28;20091;-71
2024/02/27 05:02:48;;;;;;;50.05;23.27;;;;;;;4.03;100.00;101192.38;4998129;28;20037;-72
2024/02/27 05:05:14;;;;;;;47.20;23.33;;;;;;;4.00;100.00;101197.69;5007471;28;20034;-72
2024/02/27 05:07:39;;;;;;;46.53;20.60;;;;;;;4.04;100.00;101191.44;4997850;28;20038;-71
2024/02/27 05:10:05;;;;;;;60.45;25.13;;;;;;;4.01;100.00;101198.50;5013307;28;20030;-71
2024/02/27 05:12:30;;;;;;;48.50;21.88;;;;;;;3.99;100.00;101195.22;5015816;28;20520;-71
2024/02/27 05:14:56;;;;;;;45.15;21.58;;;;;;;3.95;100.00;101202.31;5014446;28;20030;-71
2024/02/27 05:17:21;;;;;;;49.88;23.63;;;;;;;3.91;100.00;101211.16;5014996;28;20101;-71
2024/02/27 05:19:47;;;;;;;48.83;22.80;;;;;;;3.99;100.00;101211.44;4996252;28;20093;-71
2024/02/27 05:22:12;;;;;;;49.28;23.55;;;;;;;3.93;100.00;101216.19;5012049;28;20081;-72
2024/02/27 05:24:39;;;;;;;48.05;21.90;;;;;;;3.93;100.00;101222.13;4997262;28;20057;-71
2024/02/27 05:27:05;;;;;;;48.85;21.80;;;;;;;3.95;100.00;101215.16;5008692;28;20049;-72
2024/02/27 05:29:32;;;;;;;49.65;23.02;;;;;;;3.92;100.00;101215.38;5014056;28;21209;-71
2024/02/27 05:31:59;;;;;;;47.00;22.70;;;;;;;3.90;100.00;101212.09;5006743;28;20023;-72
2024/02/27 05:34:24;;;;;;;47.20;21.13;;;;;;;3.87;100.00;101217.41;5020236;28;20912;-71
2024/02/27 05:36:50;;;;;;;50.92;23.05;;;;;;;3.84;100.00;101220.16;4996785;28;20084;-71
2024/02/27 05:39:15;;;;;;;49.33;22.10;;;;;;;3.82;100.00;101222.84;5007222;28;20033;-72
2024/02/27 05:41:41;;;;;;;54.35;25.15;;;;;;;3.80;100.00;101222.13;5009912;28;20101;-72
2024/02/27 05:44:06;;;;;;;49.75;22.25;;;;;;;3.79;100.00;101228.19;4995318;28;20045;-71
2024/02/27 05:46:32;;;;;;;45.15;21.70;;;;;;;3.80;100.00;101229.81;5006514;28;20034;-71
2024/02/27 05:48:58;;;;;;;50.65;22.35;;;;;;;3.80;100.00;101234.13;5001571;28;20045;-71
2024/02/27 05:51:23;;;;;;;44.97;22.38;;;;;;;3.79;100.00;101228.19;5011149;28;20043;-71
2024/02/27 05:53:49;;;;;;;51.78;23.20;;;;;;;3.85;100.00;101224.38;5015697;28;20029;-71
2024/02/27 05:56:16;;;;;;;50.28;22.98;;;;;;;3.83;100.00;101245.00;4993864;28;20527;-71
2024/02/27 05:58:42;;;;;;;53.22;23.88;;;;;;;3.81;100.00;101246.03;5012320;28;20034;-71
2024/02/27 06:01:07;;;;;;;53.42;24.77;;;;;;;3.80;100.00;101246.97;4992334;28;20026;-73
2024/02/27 06:03:34;;;;;;;55.30;25.33;;;;;;;3.78;100.00;101251.38;5009771;28;20025;-73
2024/02/27 06:06:00;;;;;;;54.28;24.20;;;;;;;3.85;100.00;101252.63;4993977;28;20091;-71
2024/02/27 06:08:25;;;;;;;51.85;24.88;;;;;;;3.85;100.00;101256.00;5010846;28;20037;-71
2024/02/27 06:10:51;;;;;;;45.03;21.27;;;;;;;3.80;100.00;101257.22;4995465;28;20519;-71
2024/02/27 06:13:16;;;;;;;51.70;23.55;;;;;;;3.84;100.00;101266.34;4991024;28;20065;-71
2024/02/27 06:15:44;;;;;;;52.10;23.40;;;;;;;3.76;100.00;101269.41;5010962;28;20045;-71
2024/02/27 06:18:13;;;;;;;51.78;23.65;;;;;;;3.73;100.00;101266.22;5007561;28;20022;-71
2024/02/27 06:23:27;;;;;;;55.33;23.10;;;;;;;3.78;100.00;101271.88;5013471;28;20107;-71
2024/02/27 06:25:54;;;;;;;52.13;22.13;;;;;;;3.79;100.00;101287.19;5013307;28;20033;-71
2024/02/27 06:28:20;;;;;;;52.83;22.67;;;;;;;3.76;100.00;101292.50;5010691;28;20076;-71
2024/02/27 06:30:45;;;;;;;52.15;22.25;;;;;;;3.72;100.00;101293.63;4995450;28;20038;-71
2024/02/27 06:33:11;;;;;;;50.65;23.35;;;;;;;3.70;100.00;101291.16;5009450;28;20496;-71
2024/02/27 06:35:37;;;;;;;49.70;22.13;;;;;;;3.70;100.00;101300.59;5003877;28;20037;-71
2024/02/27 06:38:04;;;;;;;53.47;23.77;;;;;;;3.67;100.00;101300.78;4999277;28;20034;-71
2024/02/27 06:40:30;;;;;;;48.80;21.83;;;;;;;3.65;100.00;101300.88;5009281;28;20049;-71
2024/02/27 06:42:55;;;;;;;47.45;21.65;;;;;;;3.66;100.00;101309.44;5001792;28;20034;-71
2024/02/27 06:45:21;;;;;;;45.22;20.92;;;;;;;3.76;100.00;101299.38;4988872;28;20056;-71
2024/02/27 06:47:46;;;;;;;46.20;21.80;;;;;;;3.69;100.00;101312.63;5012792;28;20041;-71
2024/02/27 06:50:12;;;;;;;50.15;20.33;;;;;;;3.62;100.00;101319.06;5010453;28;20034;-71
2024/02/27 06:52:38;;;;;;;43.58;21.70;;;;;;;3.68;100.00;101317.84;5023221;28;20038;-71
2024/02/27 06:55:05;;;;;;;46.08;21.08;;;;;;;3.66;100.00;101324.81;4991040;28;20080;-71
2024/02/27 06:57:32;;;;;;;48.40;20.98;;;;;;;3.65;100.00;101326.53;4991373;28;20079;-71
2024/02/27 06:59:58;;;;;;;49.33;20.48;;;;;;;3.68;100.00;101325.53;5020849;28;20374;-71
2024/02/27 07:02:23;;;;;;;52.78;22.88;;;;;;;3.69;100.00;101327.16;4988440;28;20041;-71
2024/02/27 07:04:48;;;;;;;46.92;21.50;;;;;;;3.63;100.00;101327.56;4992324;28;20041;-71
2024/02/27 07:07:14;;;;;;;50.80;22.40;;;;;;;3.64;100.00;101331.78;5008539;28;20045;-71
2024/02/27 07:09:39;;;;;;;47.95;22.55;;;;;;;3.60;100.00;101332.88;4991914;28;20030;-71
2024/02/27 07:12:05;;;;;;;44.55;20.98;;;;;;;3.57;100.00;101338.22;5006247;28;20476;-71
2024/02/27 07:14:33;;;;;;;52.38;21.83;;;;;;;3.68;100.00;101343.50;4993613;28;20573;-71
2024/02/27 07:16:59;;;;;;;42.90;19.58;;;;;;;3.65;100.00;101352.19;5021736;28;20449;-71
2024/02/27 07:19:26;;;;;;;50.17;21.77;;;;;;;3.69;100.00;101356.22;5021303;28;20503;-71
2024/02/27 07:21:52;;;;;;;49.45;19.98;;;;;;;3.74;100.00;101353.34;5003406;28;20050;-71
2024/02/27 07:24:18;;;;;;;48.85;22.67;;;;;;;3.65;100.00;101352.19;5014411;28;20072;-71
2024/02/27 07:26:44;;;;;;;48.55;21.63;;;;;;;3.69;100.00;101348.53;4995402;28;20583;-71
2024/02/27 07:29:11;;;;;;;42.42;21.33;;;;;;;3.67;100.00;101346.97;5009680;28;20100;-71
2024/02/27 07:31:37;;;;;;;44.53;20.90;;;;;;;3.72;100.00;101347.50;5019545;28;20062;-71
2024/02/27 07:34:03;;;;;;;49.00;21.83;;;;;;;3.74;100.00;101345.66;5010349;28;20030;-71
2024/02/27 07:36:29;;;;;;;44.50;20.40;;;;;;;3.83;100.00;101341.69;5009199;28;20466;-71
2024/02/27 07:38:54;;;;;;;51.38;21.98;;;;;;;3.95;100.00;101347.78;5004590;28;20038;-70
2024/02/27 07:41:20;;;;;;;46.75;21.08;;;;;;;3.94;100.00;101353.81;5005680;28;20046;-71
2024/02/27 07:43:45;;;;;;;47.05;20.45;;;;;;;3.96;100.00;101357.13;5015606;28;20053;-71
2024/02/27 07:46:13;;;;;;;45.20;20.90;;;;;;;3.96;100.00;101352.81;5022153;28;20034;-71
2024/02/27 07:48:40;;;;;;;43.20;21.27;;;;;;;3.98;100.00;101361.22;5010380;28;20045;-71
2024/02/27 07:51:05;;;;;;;46.78;21.13;;;;;;;3.87;100.00;101366.22;4994030;28;20022;-71
2024/02/27 07:53:30;;;;;;;42.42;20.20;;;;;;;3.92;100.00;101363.34;4997307;28;20041;-71
2024/02/27 07:55:56;;;;;;;44.40;20.80;;;;;;;3.90;100.00;101368.59;5010604;28;20096;-71
2024/02/27 07:58:21;;;;;;;56.75;25.50;;;;;;;3.86;100.00;101369.69;4995508;28;20038;-70
2024/02/27 08:00:47;;;;;;;53.30;24.13;;;;;;;3.88;100.00;101366.13;4991561;28;20042;-71
2024/02/27 08:03:12;;;;;;;43.50;21.08;;;;;;;3.98;100.00;101378.38;5011807;28;20036;-70
2024/02/27 08:05:38;;;;;;;49.17;21.85;;;;;;;3.97;100.00;101380.09;5028490;28;20048;-71
2024/02/27 08:08:03;;;;;;;45.50;21.67;;;;;;;4.01;100.00;101388.41;4997475;28;20036;-71
2024/02/27 08:10:29;;;;;;;47.65;21.40;;;;;;;4.13;100.00;101390.22;5009135;28;20056;-71
2024/02/27 08:12:54;;;;;;;50.55;23.45;;;;;;;4.04;100.00;101399.31;5003022;28;20017;-71
2024/02/27 08:15:20;;;;;;;52.97;22.48;;;;;;;3.98;100.00;101411.75;4991070;28;20048;-71
2024/02/27 08:17:45;;;;;;;46.08;21.40;;;;;;;3.94;100.00;101410.25;5014806;28;20092;-71
2024/02/27 08:20:12;;;;;;;53.05;23.75;;;;;;;4.00;100.00;101412.47;5015393;28;20048;-71
2024/02/27 08:22:37;;;;;;;52.35;23.38;;;;;;;4.09;100.00;101404.16;5012711;28;20045;-71
2024/02/27 08:25:03;;;;;;;56.83;25.48;;;;;;;4.06;100.00;101410.31;4994034;28;20041;-71
2024/02/27 08:27:29;;;;;;;48.15;23.88;;;;;;;4.00;100.00;101413.28;5014059;28;20041;-71
2024/02/27 08:29:55;;;;;;;52.75;23.40;;;;;;;3.95;100.00;101410.16;5007688;28;20067;-71
2024/02/27 08:32:20;;;;;;;47.58;22.05;;;;;;;4.01;100.00;101409.81;5011222;28;20515;-71
2024/02/27 08:34:46;;;;;;;56.25;25.13;;;;;;;3.95;100.00;101407.59;5025808;28;20033;-71
2024/02/27 08:37:12;;;;;;;56.58;24.83;;;;;;;4.10;100.00;101409.19;5013167;28;20039;-71
2024/02/27 08:39:38;;;;;;;48.38;22.35;;;;;;;4.10;100.00;101416.88;5015060;28;20038;-71
2024/02/27 08:42:03;;;;;;;51.97;23.42;;;;;;;4.13;100.00;101425.34;5027177;28;20038;-71
2024/02/27 08:44:29;;;;;;;48.05;21.65;;;;;;;4.08;100.00;101428.19;5017805;28;20030;-71
2024/02/27 08:46:55;;;;;;;44.88;21.00;;;;;;;4.15;100.00;101416.59;5014777;28;20506;-71
2024/02/27 08:49:20;;;;;;;46.90;22.27;;;;;;;4.21;100.00;101418.75;5015827;28;20037;-71
2024/02/27 08:51:46;;;;;;;54.50;22.75;;;;;;;4.36;100.00;101411.81;5013393;28;20405;-70
2024/02/27 08:54:12;;;;;;;49.60;23.77;;;;;;;4.41;100.00;101407.19;5014738;28;20044;-71
2024/02/27 08:56:40;;;;;;;53.08;23.05;;;;;;;4.40;100.00;101408.13;5012129;28;20042;-71
2024/02/27 08:59:06;;;;;;;56.58;24.80;;;;;;;4.46;100.00;101400.03;5019384;28;20037;-71
2024/02/27 09:01:32;;;;;;;53.67;24.17;;;;;;;4.65;100.00;101399.63;5013762;28;20038;-70
2024/02/27 09:03:57;;;;;;;71.82;31.98;;;;;;;4.70;100.00;101401.06;5018393;28;20113;-71
2024/02/27 09:06:23;;;;;;;60.05;27.50;;;;;;;4.64;100.00;101410.81;5013445;28;20397;-71
2024/02/27 09:08:48;;;;;;;85.68;34.38;;;;;;;4.73;100.00;101405.97;5014596;28;20488;-71
2024/02/27 09:11:14;;;;;;;66.70;29.30;;;;;;;4.79;100.00;101401.25;4997317;28;20081;-71
2024/02/27 09:13:39;;;;;;;53.67;25.77;;;;;;;4.92;100.00;101401.25;4998783;28;20034;-71
2024/02/27 09:16:05;;;;;;;55.90;25.42;;;;;;;5.00;100.00;101403.28;5016883;28;20034;-71
2024/02/27 09:18:31;;;;;;;50.90;25.02;;;;;;;5.09;100.00;101402.66;4985273;28;20111;-71
2024/02/27 09:20:57;;;;;;;52.38;24.50;;;;;;;5.15;100.00;101407.38;5012828;28;20034;-72
2024/02/27 09:23:22;;;;;;;53.35;24.05;;;;;;;5.21;100.00;101401.81;5013670;28;20034;-71
2024/02/27 09:25:48;;;;;;;53.33;23.73;;;;;;;5.26;100.00;101404.06;4999505;28;20104;-70
2024/02/27 09:28:13;;;;;;;53.67;25.05;;;;;;;5.20;100.00;101413.03;5014592;28;20480;-71
2024/02/27 09:30:39;;;;;;;53.80;24.35;;;;;;;5.26;100.00;101419.50;5011674;28;20029;-71
2024/02/27 09:33:04;;;;;;;52.40;25.02;;;;;;;5.33;100.00;101420.72;5016449;28;20030;-71
2024/02/27 09:35:30;;;;;;;48.95;22.23;;;;;;;5.31;100.00;101425.13;5014138;28;20432;-71
2024/02/27 09:37:55;;;;;;;51.30;24.60;;;;;;;5.28;100.00;101430.50;5019550;28;20014;-70
2024/02/27 09:40:21;;;;;;;50.83;23.80;;;;;;;5.40;100.00;101439.09;5011637;28;20042;-70
2024/02/27 09:42:51;;;;;;;56.95;25.08;;;;;;;5.27;100.00;101444.28;5017431;28;20041;-71
2024/02/27 09:45:19;;;;;;;56.58;26.73;;;;;;;5.18;100.00;101442.31;4993029;28;20076;-70
2024/02/27 09:47:48;;;;;;;73.03;28.15;;;;;;;5.19;100.00;101447.38;5009158;28;20026;-70
2024/02/27 09:50:18;;;;;;;66.13;26.77;;;;;;;5.31;100.00;101447.47;5011518;28;20088;-71
2024/02/27 09:52:48;;;;;;;66.85;25.35;;;;;;;5.45;100.00;101448.16;5027650;28;20029;-70
2024/02/27 09:55:14;;;;;;;60.08;26.23;;;;;;;5.43;100.00;101444.88;5012345;28;21965;-71
2024/02/27 09:57:42;;;;;;;59.35;25.85;;;;;;;5.56;100.00;101444.03;5009777;28;20104;-71
2024/02/27 10:00:08;;;;;;;62.45;26.25;;;;;;;5.60;100.00;101448.84;5014256;28;20061;-71
2024/02/27 10:02:47;;;;;;;59.25;26.80;;;;;;;5.59;100.00;101452.31;5009122;28;20053;-71
2024/02/27 10:05:16;;;;;;;55.20;25.83;;;;;;;5.59;100.00;101451.50;4981353;28;20026;-70
2024/02/27 10:07:48;;;;;;;52.08;24.00;;;;;;;5.59;100.00;101462.63;5010683;28;20045;-71
2024/02/27 10:10:13;;;;;;;60.00;25.85;;;;;;;5.60;100.00;101456.56;4996506;28;20042;-71
2024/02/27 10:12:39;;;;;;;57.55;26.88;;;;;;;5.56;100.00;101462.84;4992387;28;20054;-70
2024/02/27 10:15:05;;;;;;;53.45;25.20;;;;;;;5.58;100.00;101470.47;5010109;28;20041;-71
2024/02/27 10:17:32;;;;;;;53.85;26.65;;;;;;;5.58;100.00;101478.19;4991133;28;20060;-71
2024/02/27 10:20:00;;;;;;;49.80;24.92;;;;;;;5.61;100.00;101478.78;4996017;28;20485;-71
2024/02/27 10:22:25;;;;;;;50.80;25.23;;;;;;;5.66;100.00;101491.31;5008607;28;20056;-71
2024/02/27 10:25:10;;;;;;;53.75;25.63;;;;;;;5.63;100.00;101488.94;5011724;28;20036;-71
2024/02/27 10:27:37;;;;;;;52.65;26.02;;;;;;;5.62;100.00;101489.91;5014037;28;20041;-71
2024/02/27 10:30:05;;;;;;;61.13;26.50;;;;;;;5.56;100.00;101491.16;5007860;28;20034;-71
2024/02/27 10:32:32;;;;;;;51.72;25.77;;;;;;;5.50;100.00;101491.59;5006341;28;20113;-71
2024/02/27 10:34:58;;;;;;;52.03;26.35;;;;;;;5.51;100.00;101490.63;4993418;28;20038;-71
2024/02/27 10:37:24;;;;;;;52.05;25.67;;;;;;;5.65;100.00;101481.94;4997735;28;20042;-71
2024/02/27 10:39:51;;;;;;;53.72;26.67;;;;;;;5.71;100.00;101486.69;5010667;28;20037;-71
2024/02/27 10:42:16;;;;;;;55.65;26.35;;;;;;;5.71;100.00;101485.84;5009063;28;20130;-71
2024/02/27 10:44:42;;;;;;;58.00;27.65;;;;;;;5.61;100.00;101489.09;5011936;28;20041;-71
2024/02/27 10:47:08;;;;;;;53.22;27.88;;;;;;;5.79;100.00;101484.38;4996467;28;20037;-71
2024/02/27 10:49:34;;;;;;;63.83;27.83;;;;;;;5.87;100.00;101481.28;4981512;28;20025;-71
2024/02/27 10:52:01;;;;;;;55.92;27.10;;;;;;;5.93;100.00;101477.44;5011771;28;20452;-71
2024/02/27 10:54:26;;;;;;;56.95;27.88;;;;;;;5.98;100.00;101478.78;5000380;28;20029;-71
2024/02/27 10:56:57;;;;;;;52.83;27.65;;;;;;;6.02;100.00;101477.63;4992177;28;20100;-71
2024/02/27 10:59:27;;;;;;;67.07;32.53;;;;;;;6.04;100.00;101478.34;5001690;28;20061;-71
2024/02/27 11:01:56;;;;;;;73.05;35.65;;;;;;;6.06;100.00;101469.69;5009190;28;20033;-71
2024/02/27 11:04:23;;;;;;;82.75;41.47;;;;;;;6.14;100.00;101472.53;5008111;28;20034;-71
2024/02/27 11:06:50;;;;;;;80.03;39.40;;;;;;;6.08;100.00;101471.22;5007927;28;20038;-71